Time;durP1;ratioP1;P1;durP2;ratioP2;P2;SDS_P1;SDS_P2;PMS_P1;PMS_P2;Temp;Humidity;BMP_temperature;BMP_pressure;BME280_temperature;BME280_humidity;BME280_pressure;Samples;Min_cycle;Max_cycle;Signal;HPM_P1;HPM_P2
2021/12/17 00:00:40;;;;;;;214.53;51.67;;;;;;;;;;5034769;28;20630;-53
2021/12/17 00:03:12;;;;;;;174.43;48.03;;;;;;;;;;5035072;28;20437;-53
2021/12/17 00:08:10;;;;;;;189.70;50.20;;;;;;;;;;5034529;28;20766;-52
2021/12/17 00:10:36;;;;;;;241.87;56.53;;;;;;;;;;5033953;28;20391;-52
2021/12/17 00:13:03;;;;;;;212.17;52.43;;;;;;;;;;5033800;28;20448;-52
2021/12/17 00:15:29;;;;;;;216.77;53.00;;;;;;;;;;5033069;28;20418;-53
2021/12/17 00:18:01;;;;;;;227.67;52.00;;;;;;;;;;5033014;28;20402;-53
2021/12/17 00:40:03;;;;;;;191.03;47.33;;;;;;;;;;5033255;28;20398;-51
2021/12/17 00:53:24;;;;;;;192.03;48.20;;;;;;;;;;5031545;28;20960;-52
2021/12/17 00:55:50;;;;;;;157.27;43.07;;;;;;;;;;5033850;28;20906;-52
2021/12/17 00:58:16;;;;;;;159.33;45.70;;;;;;;;;;5034736;28;20941;-53
2021/12/17 01:00:42;;;;;;;166.53;43.57;;;;;;;;;;5034749;28;20430;-53
2021/12/17 01:03:08;;;;;;;173.70;44.93;;;;;;;;;;5034759;28;20893;-52
2021/12/17 01:05:34;;;;;;;171.10;43.47;;;;;;;;;;5033893;28;20481;-53
2021/12/17 01:08:01;;;;;;;181.87;47.20;;;;;;;;;;5034315;28;20417;-53
2021/12/17 01:10:30;;;;;;;189.70;46.27;;;;;;;;;;5034522;28;20440;-52
2021/12/17 01:12:57;;;;;;;164.57;45.07;;;;;;;;;;5034691;28;20402;-53
2021/12/17 01:15:23;;;;;;;170.43;43.87;;;;;;;;;;5033800;28;20426;-53
2021/12/17 01:17:52;;;;;;;186.57;45.90;;;;;;;;;;5034401;28;20489;-53
2021/12/17 01:25:33;;;;;;;157.27;48.17;;;;;;;;;;5033621;28;20852;-52
2021/12/17 01:36:13;;;;;;;145.40;42.37;;;;;;;;;;5033416;28;20449;-52
2021/12/17 01:43:52;;;;;;;153.60;42.47;;;;;;;;;;5033934;28;20409;-52
2021/12/17 01:46:23;;;;;;;152.20;43.10;;;;;;;;;;5033078;28;20414;-52
2021/12/17 01:49:01;;;;;;;147.10;42.87;;;;;;;;;;5033844;28;20912;-52
2021/12/17 02:00:05;;;;;;;127.10;40.80;;;;;;;;;;4989443;28;20453;-52
2021/12/17 02:02:37;;;;;;;154.67;42.77;;;;;;;;;;5032654;28;20409;-52
2021/12/17 02:05:03;;;;;;;151.13;44.40;;;;;;;;;;5032132;28;20450;-52
2021/12/17 02:07:29;;;;;;;146.77;42.23;;;;;;;;;;5033188;28;20406;-52
2021/12/17 02:20:59;;;;;;;145.17;41.60;;;;;;;;;;5033296;28;20428;-52
2021/12/17 02:29:20;;;;;;;146.77;42.10;;;;;;;;;;5033417;28;20471;-53
2021/12/17 02:31:47;;;;;;;166.93;45.87;;;;;;;;;;5032698;28;20398;-52
2021/12/17 02:37:17;;;;;;;142.67;41.20;;;;;;;;;;4988579;28;20424;-52
2021/12/17 02:45:46;;;;;;;166.33;43.87;;;;;;;;;;5032173;28;20884;-52
2021/12/17 02:48:15;;;;;;;136.00;42.77;;;;;;;;;;5028573;28;20413;-52
2021/12/17 02:50:43;;;;;;;129.63;42.30;;;;;;;;;;5032517;28;20398;-52
2021/12/17 02:53:09;;;;;;;129.03;39.70;;;;;;;;;;5032552;28;20781;-52
2021/12/17 02:55:39;;;;;;;147.80;44.20;;;;;;;;;;5031856;28;20429;-52
2021/12/17 02:58:06;;;;;;;127.53;40.80;;;;;;;;;;5032400;28;20413;-52
2021/12/17 03:00:32;;;;;;;127.13;40.90;;;;;;;;;;5032367;28;20429;-52
2021/12/17 03:02:59;;;;;;;139.20;43.83;;;;;;;;;;5032370;28;20902;-53
2021/12/17 03:05:26;;;;;;;129.33;40.30;;;;;;;;;;5031506;28;20816;-52
2021/12/17 03:07:52;;;;;;;127.73;38.97;;;;;;;;;;5032307;28;20437;-53
2021/12/17 03:10:18;;;;;;;144.77;43.50;;;;;;;;;;5032322;28;20493;-52
2021/12/17 03:12:56;;;;;;;125.80;41.53;;;;;;;;;;5032219;28;20830;-52
2021/12/17 03:25:59;;;;;;;150.80;40.83;;;;;;;;;;5031172;28;20480;-51
2021/12/17 03:28:25;;;;;;;132.30;41.67;;;;;;;;;;5032063;28;20432;-51
2021/12/17 03:30:51;;;;;;;139.10;41.10;;;;;;;;;;5031916;28;20420;-53
2021/12/17 03:33:17;;;;;;;139.47;38.83;;;;;;;;;;5032025;28;20412;-52
2021/12/17 03:35:43;;;;;;;147.00;42.20;;;;;;;;;;5031020;28;20499;-53
2021/12/17 03:38:09;;;;;;;145.43;44.00;;;;;;;;;;5031863;28;20877;-53
2021/12/17 03:40:35;;;;;;;130.87;39.57;;;;;;;;;;5031851;28;20425;-53
2021/12/17 03:43:04;;;;;;;117.63;36.70;;;;;;;;;;5031827;28;20436;-52
2021/12/17 03:45:30;;;;;;;124.70;40.07;;;;;;;;;;5031033;28;20983;-52
2021/12/17 03:47:56;;;;;;;135.77;38.20;;;;;;;;;;5031599;28;20425;-52
2021/12/17 03:50:22;;;;;;;136.27;41.90;;;;;;;;;;5031625;28;20410;-53
2021/12/17 03:52:49;;;;;;;128.83;38.20;;;;;;;;;;5031816;28;20874;-53
2021/12/17 03:55:15;;;;;;;123.73;36.80;;;;;;;;;;5030919;28;20444;-52
2021/12/17 03:57:41;;;;;;;118.90;36.30;;;;;;;;;;5031633;28;20410;-52
2021/12/17 04:00:08;;;;;;;105.27;35.37;;;;;;;;;;5031638;28;20406;-52
2021/12/17 04:02:34;;;;;;;100.10;37.10;;;;;;;;;;5031653;28;20441;-53
2021/12/17 04:05:00;;;;;;;107.40;35.97;;;;;;;;;;5030726;28;20442;-53
2021/12/17 04:07:26;;;;;;;134.63;39.43;;;;;;;;;;5031478;28;20444;-53
2021/12/17 04:09:52;;;;;;;125.00;39.17;;;;;;;;;;5031611;28;20425;-52
2021/12/17 04:12:22;;;;;;;135.00;39.93;;;;;;;;;;5031586;28;20438;-52
2021/12/17 04:14:49;;;;;;;115.17;36.97;;;;;;;;;;5030852;28;20407;-53
2021/12/17 04:17:25;;;;;;;128.03;37.33;;;;;;;;;;5031488;28;20414;-53
2021/12/17 04:19:51;;;;;;;127.70;40.30;;;;;;;;;;5031508;28;20441;-52
2021/12/17 04:22:17;;;;;;;127.73;37.47;;;;;;;;;;5031610;28;20495;-53
2021/12/17 04:24:43;;;;;;;124.43;40.00;;;;;;;;;;5030774;28;20453;-52
2021/12/17 04:27:09;;;;;;;121.80;36.80;;;;;;;;;;5030979;28;20518;-52
2021/12/17 04:29:41;;;;;;;106.83;36.10;;;;;;;;;;5032832;28;20913;-52
2021/12/17 04:32:07;;;;;;;116.30;38.57;;;;;;;;;;5035159;28;20406;-53
2021/12/17 04:34:33;;;;;;;92.93;31.40;;;;;;;;;;5034474;28;20475;-52
2021/12/17 04:36:59;;;;;;;115.70;36.50;;;;;;;;;;5035032;28;20922;-53
2021/12/17 04:39:26;;;;;;;125.93;37.57;;;;;;;;;;5035127;28;20402;-53
2021/12/17 04:42:00;;;;;;;117.07;40.70;;;;;;;;;;5036644;28;20409;-50
2021/12/17 04:44:29;;;;;;;138.27;37.07;;;;;;;;;;5036106;28;20865;-50
2021/12/17 04:57:15;;;;;;;134.20;37.70;;;;;;;;;;5035682;28;20414;-50
2021/12/17 04:57:51;;;;;;;95.03;32.20;;;;;;;;;;5036200;28;20453;-50
2021/12/17 05:00:20;;;;;;;108.43;35.70;;;;;;;;;;5035855;28;20406;-50
2021/12/17 05:02:50;;;;;;;103.73;34.03;;;;;;;;;;5036036;28;20422;-49
2021/12/17 05:05:17;;;;;;;101.13;32.20;;;;;;;;;;5035111;28;20881;-49
2021/12/17 05:07:49;;;;;;;107.17;34.30;;;;;;;;;;5036238;28;20398;-51
2021/12/17 05:18:23;;;;;;;121.93;32.97;;;;;;;;;;5035955;28;20516;-50
2021/12/17 05:20:53;;;;;;;118.53;34.97;;;;;;;;;;5035771;28;20759;-50
2021/12/17 05:23:23;;;;;;;101.03;34.00;;;;;;;;;;5035781;28;20441;-50
2021/12/17 05:25:49;;;;;;;120.40;36.70;;;;;;;;;;5034685;28;20452;-50
2021/12/17 05:28:15;;;;;;;119.53;34.33;;;;;;;;;;5035330;28;20924;-50
2021/12/17 05:30:45;;;;;;;113.10;32.83;;;;;;;;;;5036127;28;20481;-50
2021/12/17 05:33:12;;;;;;;109.27;33.97;;;;;;;;;;5035582;28;20401;-50
2021/12/17 05:35:38;;;;;;;101.63;32.17;;;;;;;;;;5035058;28;20427;-50
2021/12/17 05:38:04;;;;;;;104.67;35.37;;;;;;;;;;5033802;28;20468;-50
2021/12/17 05:40:30;;;;;;;92.53;32.57;;;;;;;;;;5034995;28;20492;-49
2021/12/17 05:43:00;;;;;;;102.20;34.13;;;;;;;;;;5035158;28;20430;-50
2021/12/17 05:45:37;;;;;;;109.03;35.93;;;;;;;;;;5034489;28;20478;-50
2021/12/17 05:48:07;;;;;;;114.30;32.73;;;;;;;;;;5035088;28;20409;-50
2021/12/17 05:50:34;;;;;;;115.73;34.43;;;;;;;;;;5034592;28;21052;-49
2021/12/17 05:53:01;;;;;;;90.30;32.27;;;;;;;;;;5034041;28;20406;-50
2021/12/17 05:55:27;;;;;;;103.57;32.60;;;;;;;;;;5033556;28;20772;-50
2021/12/17 05:57:53;;;;;;;114.23;34.90;;;;;;;;;;5034100;28;20410;-50
2021/12/17 06:00:24;;;;;;;123.10;37.77;;;;;;;;;;5034170;28;20403;-50
2021/12/17 06:02:50;;;;;;;102.60;33.30;;;;;;;;;;5034060;28;20421;-50
2021/12/17 06:05:16;;;;;;;119.53;35.90;;;;;;;;;;5033537;28;21035;-49
2021/12/17 06:07:43;;;;;;;125.23;35.67;;;;;;;;;;5034358;28;20812;-49
2021/12/17 06:10:09;;;;;;;113.20;34.70;;;;;;;;;;5033860;28;20412;-49
2021/12/17 06:12:36;;;;;;;96.03;31.53;;;;;;;;;;5034115;28;20406;-51
2021/12/17 06:15:06;;;;;;;92.10;34.33;;;;;;;;;;5032851;28;20488;-49
2021/12/17 06:17:32;;;;;;;106.60;32.63;;;;;;;;;;5034322;28;20756;-50
2021/12/17 06:19:58;;;;;;;92.63;32.37;;;;;;;;;;5033416;28;20965;-50
2021/12/17 06:22:24;;;;;;;106.03;32.77;;;;;;;;;;5033740;28;20434;-50
2021/12/17 06:24:50;;;;;;;85.40;30.70;;;;;;;;;;5031896;28;20834;-52
2021/12/17 06:27:17;;;;;;;99.17;32.47;;;;;;;;;;5031104;28;20442;-49
2021/12/17 06:29:44;;;;;;;85.60;29.93;;;;;;;;;;5022600;28;20413;-50
2021/12/17 06:32:10;;;;;;;91.70;31.70;;;;;;;;;;5013520;28;20890;-50
2021/12/17 06:34:36;;;;;;;111.53;28.83;;;;;;;;;;5013445;28;20410;-49
2021/12/17 06:37:03;;;;;;;89.07;31.10;;;;;;;;;;5013099;28;20451;-53
2021/12/17 06:39:29;;;;;;;80.03;27.90;;;;;;;;;;5013596;28;20904;-52
2021/12/17 06:41:55;;;;;;;80.27;28.20;;;;;;;;;;5013658;28;20464;-52
2021/12/17 06:44:24;;;;;;;83.90;30.50;;;;;;;;;;5014164;28;20451;-50
2021/12/17 06:47:14;;;;;;;72.97;27.40;;;;;;;;;;5013745;28;20411;-49
2021/12/17 06:58:15;;;;;;;76.70;29.10;;;;;;;;;;5013881;28;20485;-49
2021/12/17 07:06:00;;;;;;;83.00;25.77;;;;;;;;;;5013144;28;20463;-49
2021/12/17 07:11:00;;;;;;;85.93;27.00;;;;;;;;;;5014126;28;20419;-52
2021/12/17 07:21:42;;;;;;;58.67;22.80;;;;;;;;;;5014057;28;20414;-50
2021/12/17 07:35:12;;;;;;;50.80;18.23;;;;;;;;;;5013267;28;20432;-50
2021/12/17 07:39:53;;;;;;;42.63;17.47;;;;;;;;;;5013706;28;20444;-50
2021/12/17 07:42:20;;;;;;;42.27;16.83;;;;;;;;;;5013610;28;20421;-49
2021/12/17 07:44:45;;;;;;;40.80;16.67;;;;;;;;;;5012702;28;20901;-50
2021/12/17 07:47:11;;;;;;;49.23;19.10;;;;;;;;;;5013240;28;20530;-50
2021/12/17 07:49:37;;;;;;;51.77;18.50;;;;;;;;;;5013416;28;20410;-50
2021/12/17 07:52:04;;;;;;;35.90;15.80;;;;;;;;;;5013049;28;20411;-50
2021/12/17 07:54:29;;;;;;;37.53;16.70;;;;;;;;;;5012989;28;20985;-50
2021/12/17 07:56:55;;;;;;;33.20;14.13;;;;;;;;;;5013040;28;20500;-50
2021/12/17 07:59:21;;;;;;;43.17;16.20;;;;;;;;;;5013318;28;20429;-50
2021/12/17 08:01:47;;;;;;;46.23;15.60;;;;;;;;;;5013465;28;20891;-50
2021/12/17 08:04:13;;;;;;;38.30;16.27;;;;;;;;;;5015759;28;20898;-50
2021/12/17 08:06:39;;;;;;;35.90;16.53;;;;;;;;;;5016555;28;20513;-50
2021/12/17 08:09:06;;;;;;;32.07;15.57;;;;;;;;;;5017399;28;20395;-51
2021/12/17 08:11:38;;;;;;;30.53;15.77;;;;;;;;;;5017263;28;20421;-50
2021/12/17 08:14:07;;;;;;;28.43;16.00;;;;;;;;;;5020239;28;20428;-50
2021/12/17 08:16:42;;;;;;;37.27;16.80;;;;;;;;;;5027138;28;20544;-51
2021/12/17 08:32:05;;;;;;;25.60;13.43;;;;;;;;;;5037065;28;20444;-50
2021/12/17 08:34:32;;;;;;;27.57;12.50;;;;;;;;;;5036052;28;20401;-52
2021/12/17 08:36:58;;;;;;;28.20;13.27;;;;;;;;;;5036380;28;20815;-50
2021/12/17 08:39:25;;;;;;;30.10;13.37;;;;;;;;;;5036799;28;20406;-50
2021/12/17 08:41:53;;;;;;;26.43;14.03;;;;;;;;;;5035748;28;20803;-51
2021/12/17 08:44:20;;;;;;;26.83;13.10;;;;;;;;;;5035948;28;20836;-50
2021/12/17 08:46:46;;;;;;;20.73;10.93;;;;;;;;;;5034296;28;20460;-50
2021/12/17 08:49:12;;;;;;;23.17;13.10;;;;;;;;;;5035396;28;20448;-50
2021/12/17 08:51:38;;;;;;;23.63;12.43;;;;;;;;;;5036991;28;20409;-49
2021/12/17 08:54:05;;;;;;;26.90;12.20;;;;;;;;;;5036348;28;20492;-50
2021/12/17 08:56:31;;;;;;;25.20;13.33;;;;;;;;;;5035915;28;20418;-49
2021/12/17 08:58:59;;;;;;;24.83;12.20;;;;;;;;;;5036180;28;20410;-50
2021/12/17 09:01:25;;;;;;;24.87;11.70;;;;;;;;;;5036182;28;20900;-50
2021/12/17 09:03:50;;;;;;;24.87;13.00;;;;;;;;;;5036134;28;20469;-50
2021/12/17 09:06:16;;;;;;;24.33;11.97;;;;;;;;;;5035338;28;20465;-49
2021/12/17 09:08:43;;;;;;;24.87;12.43;;;;;;;;;;5035841;28;20401;-50
2021/12/17 09:11:09;;;;;;;25.03;11.97;;;;;;;;;;5035583;28;20847;-52
2021/12/17 09:13:35;;;;;;;21.97;10.40;;;;;;;;;;5035470;28;20402;-50
2021/12/17 09:16:06;;;;;;;23.03;11.63;;;;;;;;;;5034005;28;20953;-52
2021/12/17 09:18:32;;;;;;;21.67;10.97;;;;;;;;;;5035900;28;20405;-50
2021/12/17 09:20:58;;;;;;;19.27;10.87;;;;;;;;;;5034518;28;20491;-51
2021/12/17 09:23:24;;;;;;;21.57;11.30;;;;;;;;;;5023532;28;20419;-50
2021/12/17 09:25:50;;;;;;;16.77;10.43;;;;;;;;;;5034327;28;20481;-50
2021/12/17 09:28:16;;;;;;;19.63;9.60;;;;;;;;;;5035250;28;20463;-50
2021/12/17 09:30:43;;;;;;;17.50;9.47;;;;;;;;;;5035825;28;20456;-50
2021/12/17 09:33:09;;;;;;;19.30;10.33;;;;;;;;;;5033525;28;20403;-50
2021/12/17 09:35:35;;;;;;;19.90;11.70;;;;;;;;;;5034366;28;20797;-50
2021/12/17 09:38:01;;;;;;;22.47;11.47;;;;;;;;;;5035166;28;20406;-50
2021/12/17 09:40:27;;;;;;;24.23;11.10;;;;;;;;;;5035186;28;20827;-50
2021/12/17 09:42:53;;;;;;;16.63;10.50;;;;;;;;;;5035282;28;20413;-50
2021/12/17 09:45:19;;;;;;;17.47;10.07;;;;;;;;;;5031613;28;20458;-50
2021/12/17 09:47:46;;;;;;;20.87;10.70;;;;;;;;;;5032235;28;20398;-52
2021/12/17 09:50:14;;;;;;;20.73;10.60;;;;;;;;;;5034284;28;20503;-50
2021/12/17 09:52:41;;;;;;;16.73;10.07;;;;;;;;;;5034423;28;20402;-50
2021/12/17 09:55:08;;;;;;;17.57;9.97;;;;;;;;;;5033878;28;20445;-50
2021/12/17 09:57:37;;;;;;;17.50;10.53;;;;;;;;;;5034524;28;20402;-50
2021/12/17 10:00:07;;;;;;;15.80;9.50;;;;;;;;;;5034907;28;20407;-50
2021/12/17 10:02:33;;;;;;;15.47;10.60;;;;;;;;;;5034820;28;20408;-50
2021/12/17 10:04:59;;;;;;;19.30;9.27;;;;;;;;;;5034007;28;20540;-50
2021/12/17 10:07:26;;;;;;;17.77;10.50;;;;;;;;;;5034375;28;20398;-50
2021/12/17 10:10:13;;;;;;;19.30;10.77;;;;;;;;;;5034844;28;20853;-51
2021/12/17 10:12:40;;;;;;;15.70;9.43;;;;;;;;;;5034568;28;20420;-50
2021/12/17 10:15:07;;;;;;;14.67;8.33;;;;;;;;;;5033762;28;20407;-50
2021/12/17 10:17:33;;;;;;;15.80;9.27;;;;;;;;;;5034262;28;20413;-50
2021/12/17 10:19:59;;;;;;;13.47;8.20;;;;;;;;;;5034271;28;20891;-50
2021/12/17 10:22:25;;;;;;;14.57;9.90;;;;;;;;;;5034236;28;20464;-50
2021/12/17 10:24:57;;;;;;;15.40;8.77;;;;;;;;;;5033901;28;20974;-50
2021/12/17 10:27:28;;;;;;;15.40;9.37;;;;;;;;;;5033000;28;20815;-51
2021/12/17 10:29:55;;;;;;;12.70;8.10;;;;;;;;;;5033985;28;20410;-50
2021/12/17 10:32:22;;;;;;;12.37;8.40;;;;;;;;;;5033994;28;20502;-49
2021/12/17 10:35:02;;;;;;;11.33;8.00;;;;;;;;;;5033826;28;20406;-50
2021/12/17 10:37:32;;;;;;;12.50;8.00;;;;;;;;;;5034389;28;20441;-50
2021/12/17 10:39:58;;;;;;;18.43;10.77;;;;;;;;;;5033833;28;20468;-49
2021/12/17 10:42:34;;;;;;;15.03;8.63;;;;;;;;;;5034828;28;20886;-52
2021/12/17 10:45:05;;;;;;;19.30;11.63;;;;;;;;;;5033513;28;20799;-53
2021/12/17 10:47:34;;;;;;;21.47;11.00;;;;;;;;;;5034836;28;20514;-52
2021/12/17 10:50:03;;;;;;;19.03;10.13;;;;;;;;;;5034693;28;20402;-53
2021/12/17 10:52:45;;;;;;;10.97;8.13;;;;;;;;;;5034779;28;20456;-53
2021/12/17 10:55:13;;;;;;;11.00;7.43;;;;;;;;;;5034240;28;20413;-53
2021/12/17 10:57:39;;;;;;;16.67;7.50;;;;;;;;;;5035068;28;20426;-52
2021/12/17 11:00:06;;;;;;;11.93;8.20;;;;;;;;;;5035144;28;20406;-52
2021/12/17 11:02:37;;;;;;;16.20;8.00;;;;;;;;;;5035379;28;20410;-53
2021/12/17 11:05:13;;;;;;;12.00;7.40;;;;;;;;;;5034755;28;20454;-53
2021/12/17 11:07:39;;;;;;;13.63;6.77;;;;;;;;;;5035841;28;20401;-53
2021/12/17 11:10:06;;;;;;;15.37;6.90;;;;;;;;;;5034915;28;20424;-53
2021/12/17 11:12:32;;;;;;;9.93;6.30;;;;;;;;;;5035736;28;20433;-52
2021/12/17 11:15:37;;;;;;;10.13;6.83;;;;;;;;;;5034665;28;20407;-52
2021/12/17 11:18:04;;;;;;;7.80;6.20;;;;;;;;;;4992901;28;20836;-52
2021/12/17 11:20:35;;;;;;;10.50;6.07;;;;;;;;;;4977062;28;20440;-52
2021/12/17 11:23:06;;;;;;;9.23;5.33;;;;;;;;;;5014799;28;20418;-52
2021/12/17 11:25:33;;;;;;;8.70;6.17;;;;;;;;;;5033982;28;20492;-52
2021/12/17 11:27:59;;;;;;;7.10;4.40;;;;;;;;;;5034382;28;20459;-52
2021/12/17 11:30:27;;;;;;;6.00;4.80;;;;;;;;;;5034070;28;20402;-53
2021/12/17 11:32:54;;;;;;;9.60;5.13;;;;;;;;;;5034527;28;20410;-52
2021/12/17 11:35:21;;;;;;;5.50;4.00;;;;;;;;;;5033136;28;20946;-52
2021/12/17 11:37:48;;;;;;;8.03;5.73;;;;;;;;;;5033332;28;20407;-51
2021/12/17 11:40:21;;;;;;;6.80;4.63;;;;;;;;;;5034369;28;20413;-52
2021/12/17 11:43:13;;;;;;;9.50;5.43;;;;;;;;;;5034534;28;20468;-53
2021/12/17 11:45:39;;;;;;;6.50;4.60;;;;;;;;;;5015009;28;20506;-52
2021/12/17 11:48:13;;;;;;;6.77;5.10;;;;;;;;;;5034634;28;20410;-52
2021/12/17 11:50:39;;;;;;;5.67;4.47;;;;;;;;;;5035167;28;20842;-52
2021/12/17 11:53:17;;;;;;;3.83;3.30;;;;;;;;;;5033732;28;20760;-52
2021/12/17 11:55:45;;;;;;;3.00;2.70;;;;;;;;;;5033177;28;20414;-51
2021/12/17 11:58:16;;;;;;;2.77;2.57;;;;;;;;;;5034691;28;20401;-52
2021/12/17 12:00:42;;;;;;;3.03;2.60;;;;;;;;;;5034649;28;20766;-52
2021/12/17 12:03:19;;;;;;;4.67;3.70;;;;;;;;;;5034839;28;20422;-52
2021/12/17 12:05:46;;;;;;;4.30;3.50;;;;;;;;;;5033774;28;20480;-52
2021/12/17 12:08:23;;;;;;;5.10;3.60;;;;;;;;;;5034582;28;20398;-52
2021/12/17 12:11:03;;;;;;;4.63;4.00;;;;;;;;;;5035683;28;20401;-52
2021/12/17 12:13:34;;;;;;;9.87;3.83;;;;;;;;;;5035161;28;20891;-52
2021/12/17 12:16:03;;;;;;;5.50;4.07;;;;;;;;;;5034264;28;20418;-53
2021/12/17 12:18:44;;;;;;;5.57;4.10;;;;;;;;;;5034699;28;20789;-53
2021/12/17 12:21:15;;;;;;;7.23;4.90;;;;;;;;;;5034669;28;20489;-52
2021/12/17 12:23:42;;;;;;;5.63;4.10;;;;;;;;;;5032624;28;20410;-53
2021/12/17 12:26:13;;;;;;;4.40;4.00;;;;;;;;;;5034015;28;20477;-53
2021/12/17 12:28:48;;;;;;;7.80;4.13;;;;;;;;;;5035473;28;20453;-53
2021/12/17 12:31:19;;;;;;;9.30;5.77;;;;;;;;;;5035908;28;20445;-52
2021/12/17 12:34:01;;;;;;;6.30;4.70;;;;;;;;;;5035655;28;20914;-52
2021/12/17 12:36:42;;;;;;;4.10;3.43;;;;;;;;;;5035082;28;20456;-53
2021/12/17 12:39:31;;;;;;;8.80;4.60;;;;;;;;;;5035527;28;20433;-53
2021/12/17 12:41:57;;;;;;;4.87;4.37;;;;;;;;;;5030034;28;20428;-52
2021/12/17 12:44:42;;;;;;;6.47;4.37;;;;;;;;;;5036066;28;20450;-52
2021/12/17 12:47:08;;;;;;;7.20;3.87;;;;;;;;;;5035984;28;20503;-53
2021/12/17 12:49:48;;;;;;;6.70;4.20;;;;;;;;;;5035321;28;20402;-52
2021/12/17 12:52:36;;;;;;;8.17;4.93;;;;;;;;;;5030991;28;20411;-52
2021/12/17 12:55:11;;;;;;;6.27;4.87;;;;;;;;;;5035224;28;20489;-52
2021/12/17 12:57:39;;;;;;;7.73;5.47;;;;;;;;;;5037950;28;20437;-52
2021/12/17 13:00:16;;;;;;;7.23;5.00;;;;;;;;;;5038565;28;20435;-53
2021/12/17 13:02:42;;;;;;;9.67;6.40;;;;;;;;;;5038419;28;20408;-52
2021/12/17 13:05:09;;;;;;;9.67;6.80;;;;;;;;;;5036859;28;20556;-52
2021/12/17 13:07:37;;;;;;;9.40;6.00;;;;;;;;;;5037386;28;20489;-53
2021/12/17 13:10:06;;;;;;;11.30;7.50;;;;;;;;;;5038197;28;20773;-53
2021/12/17 13:12:35;;;;;;;11.70;6.10;;;;;;;;;;5038801;28;20406;-53
2021/12/17 13:15:01;;;;;;;8.53;5.73;;;;;;;;;;5037625;28;20395;-52
2021/12/17 13:20:15;;;;;;;10.43;6.67;;;;;;;;;;5037740;28;20410;-53
2021/12/17 13:20:55;;;;;;;10.13;7.23;;;;;;;;;;5037439;28;20952;-53
2021/12/17 13:23:22;;;;;;;9.97;6.57;;;;;;;;;;5036337;28;20406;-53
2021/12/17 13:26:00;;;;;;;11.20;6.93;;;;;;;;;;5037238;28;20469;-53
2021/12/17 13:28:26;;;;;;;9.60;6.47;;;;;;;;;;5038119;28;20421;-52
2021/12/17 13:30:56;;;;;;;9.80;7.00;;;;;;;;;;5036839;28;20917;-53
2021/12/17 13:33:22;;;;;;;9.87;6.40;;;;;;;;;;5038366;28;20928;-53
2021/12/17 13:35:48;;;;;;;11.30;7.07;;;;;;;;;;5035571;28;20801;-53
2021/12/17 13:38:14;;;;;;;9.63;6.57;;;;;;;;;;5038155;28;20494;-52
2021/12/17 13:40:40;;;;;;;11.90;9.60;;;;;;;;;;5038118;28;20905;-53
2021/12/17 13:43:06;;;;;;;12.00;9.00;;;;;;;;;;5037870;28;20424;-52
2021/12/17 13:45:32;;;;;;;10.57;7.87;;;;;;;;;;5037084;28;20474;-53
2021/12/17 13:47:58;;;;;;;10.80;7.83;;;;;;;;;;5035432;28;20419;-53
2021/12/17 13:50:29;;;;;;;8.10;6.43;;;;;;;;;;5035767;28;20406;-52
2021/12/17 13:53:04;;;;;;;13.30;6.23;;;;;;;;;;5036293;28;20425;-53
2021/12/17 13:55:34;;;;;;;13.53;6.27;;;;;;;;;;5036239;28;20422;-52
2021/12/17 13:58:01;;;;;;;9.33;5.87;;;;;;;;;;5037244;28;20408;-53
2021/12/17 14:00:31;;;;;;;13.60;7.83;;;;;;;;;;5035585;28;20778;-52
2021/12/17 14:02:57;;;;;;;15.90;9.00;;;;;;;;;;5035655;28;20448;-52
2021/12/17 14:05:29;;;;;;;12.60;8.67;;;;;;;;;;5034754;28;20458;-52
2021/12/17 14:07:56;;;;;;;13.77;7.27;;;;;;;;;;5035411;28;20399;-53
2021/12/17 14:10:24;;;;;;;13.17;8.57;;;;;;;;;;5035068;28;20819;-52
2021/12/17 14:12:50;;;;;;;18.70;11.37;;;;;;;;;;5034895;28;20788;-52
2021/12/17 14:15:21;;;;;;;18.10;10.23;;;;;;;;;;5034096;28;20933;-52
2021/12/17 14:17:48;;;;;;;24.93;12.60;;;;;;;;;;5035717;28;20475;-52
2021/12/17 14:20:16;;;;;;;24.87;13.40;;;;;;;;;;5036060;28;20943;-53
2021/12/17 14:22:43;;;;;;;23.93;14.53;;;;;;;;;;5036628;28;20406;-53
2021/12/17 14:25:47;;;;;;;34.57;15.77;;;;;;;;;;5035534;28;20823;-52
2021/12/17 14:28:13;;;;;;;25.03;15.53;;;;;;;;;;4994388;28;20435;-52
2021/12/17 14:30:40;;;;;;;23.70;14.47;;;;;;;;;;4994155;28;20505;-53
2021/12/17 14:33:07;;;;;;;19.97;13.40;;;;;;;;;;5014352;28;20444;-52
2021/12/17 14:35:39;;;;;;;20.50;12.70;;;;;;;;;;5035294;28;20425;-52
2021/12/17 14:38:05;;;;;;;20.47;11.33;;;;;;;;;;5035567;28;20402;-52
2021/12/17 14:40:40;;;;;;;19.40;11.87;;;;;;;;;;5035404;28;20804;-52
2021/12/17 14:43:19;;;;;;;18.23;11.00;;;;;;;;;;5036044;28;20983;-53
2021/12/17 14:45:52;;;;;;;19.87;11.63;;;;;;;;;;5032598;28;20476;-53
2021/12/17 14:48:21;;;;;;;18.60;10.00;;;;;;;;;;5033467;28;20467;-52
2021/12/17 15:00:16;;;;;;;23.40;12.63;;;;;;;;;;5056139;28;20479;-53
2021/12/17 15:04:42;;;;;;;25.50;13.50;;;;;;;;;;5055280;28;20486;-53
2021/12/17 15:07:09;;;;;;;26.17;12.63;;;;;;;;;;5055980;28;20432;-52
2021/12/17 15:09:38;;;;;;;30.97;15.33;;;;;;;;;;5055738;28;20408;-52
2021/12/17 15:12:13;;;;;;;32.07;15.07;;;;;;;;;;5055495;28;20405;-52
2021/12/17 15:14:39;;;;;;;42.47;20.30;;;;;;;;;;5053194;28;20655;-52
2021/12/17 15:17:05;;;;;;;41.47;20.20;;;;;;;;;;5055055;28;20959;-52
2021/12/17 15:19:33;;;;;;;34.03;17.70;;;;;;;;;;5055571;28;20408;-52
2021/12/17 15:21:59;;;;;;;54.07;25.97;;;;;;;;;;5055918;28;20426;-53
2021/12/17 15:24:25;;;;;;;30.27;16.07;;;;;;;;;;5055776;28;20412;-52
2021/12/17 15:26:51;;;;;;;31.17;15.40;;;;;;;;;;5055884;28;20423;-53
2021/12/17 15:29:18;;;;;;;24.23;13.40;;;;;;;;;;5055282;28;20424;-53
2021/12/17 15:31:44;;;;;;;23.53;12.97;;;;;;;;;;5055470;28;20406;-52
2021/12/17 15:34:10;;;;;;;19.83;12.10;;;;;;;;;;5034296;28;20788;-52
2021/12/17 15:36:36;;;;;;;24.63;12.73;;;;;;;;;;5034002;28;20458;-52
2021/12/17 15:39:02;;;;;;;26.40;13.23;;;;;;;;;;5034465;28;20404;-53
2021/12/17 15:41:28;;;;;;;24.67;12.93;;;;;;;;;;5034117;28;20431;-53
2021/12/17 15:43:54;;;;;;;21.13;12.10;;;;;;;;;;5034711;28;20488;-53
2021/12/17 15:46:20;;;;;;;26.27;14.03;;;;;;;;;;5033149;28;20466;-51
2021/12/17 15:48:46;;;;;;;26.20;13.40;;;;;;;;;;5033395;28;20417;-53
2021/12/17 15:51:12;;;;;;;27.23;13.93;;;;;;;;;;5033620;28;20496;-52
2021/12/17 15:53:38;;;;;;;34.10;18.00;;;;;;;;;;5033260;28;20407;-52
2021/12/17 15:56:04;;;;;;;37.17;18.80;;;;;;;;;;5032987;28;20457;-53
2021/12/17 15:58:30;;;;;;;60.40;31.30;;;;;;;;;;5033437;28;20415;-53
2021/12/17 16:00:56;;;;;;;43.40;25.10;;;;;;;;;;5033356;28;20406;-53
2021/12/17 16:03:30;;;;;;;31.03;18.90;;;;;;;;;;5033203;28;20403;-53
2021/12/17 16:05:57;;;;;;;27.57;14.87;;;;;;;;;;5033029;28;20460;-53
2021/12/17 16:08:23;;;;;;;26.60;14.73;;;;;;;;;;5032354;28;20938;-52
2021/12/17 16:21:48;;;;;;;66.20;36.10;;;;;;;;;;5033974;28;20514;-53
2021/12/17 16:24:14;;;;;;;98.83;51.73;;;;;;;;;;5034245;28;20429;-52
2021/12/17 16:26:40;;;;;;;25.60;17.33;;;;;;;;;;5036429;28;20466;-52
2021/12/17 16:29:08;;;;;;;31.27;18.50;;;;;;;;;;5036922;28;20784;-52
2021/12/17 16:31:34;;;;;;;27.67;17.43;;;;;;;;;;5037023;28;20457;-52
2021/12/17 16:34:01;;;;;;;22.40;13.07;;;;;;;;;;5036553;28;20437;-52
2021/12/17 16:36:28;;;;;;;20.57;13.90;;;;;;;;;;5035979;28;20825;-53
2021/12/17 16:38:55;;;;;;;24.17;15.73;;;;;;;;;;5036600;28;20401;-52
2021/12/17 16:41:23;;;;;;;21.90;14.33;;;;;;;;;;5036519;28;20397;-52
2021/12/17 16:43:52;;;;;;;21.80;12.00;;;;;;;;;;5036234;28;20913;-53
2021/12/17 16:48:45;;;;;;;17.37;11.20;;;;;;;;;;5036714;28;20419;-53
2021/12/17 16:51:12;;;;;;;19.50;12.77;;;;;;;;;;5036318;28;20392;-52
2021/12/17 16:53:39;;;;;;;24.03;14.00;;;;;;;;;;5036586;28;20403;-53
2021/12/17 16:56:05;;;;;;;26.87;16.30;;;;;;;;;;5036000;28;20420;-52
2021/12/17 16:58:31;;;;;;;33.37;16.73;;;;;;;;;;5036909;28;20412;-52
2021/12/17 17:00:58;;;;;;;34.73;15.40;;;;;;;;;;5036658;28;20408;-51
2021/12/17 17:03:24;;;;;;;37.10;20.23;;;;;;;;;;5036193;28;20496;-51
2021/12/17 17:05:50;;;;;;;25.63;16.00;;;;;;;;;;5035591;28;20465;-52
2021/12/17 17:08:16;;;;;;;43.70;25.70;;;;;;;;;;5026720;28;20796;-51
2021/12/17 17:10:51;;;;;;;24.67;14.40;;;;;;;;;;5033945;28;20445;-52
2021/12/17 17:13:18;;;;;;;26.60;14.33;;;;;;;;;;5029041;28;20409;-53
2021/12/17 17:15:44;;;;;;;30.40;15.37;;;;;;;;;;5028187;28;20427;-52
2021/12/17 17:18:13;;;;;;;29.13;14.43;;;;;;;;;;5024855;28;20421;-52
2021/12/17 17:20:39;;;;;;;28.70;17.23;;;;;;;;;;5021582;28;20910;-52
2021/12/17 17:23:05;;;;;;;36.00;17.93;;;;;;;;;;5023420;28;20423;-51
2021/12/17 17:25:31;;;;;;;32.50;17.87;;;;;;;;;;5015023;28;20457;-52
2021/12/17 17:27:57;;;;;;;34.80;19.87;;;;;;;;;;5014640;28;20426;-52
2021/12/17 17:30:24;;;;;;;30.43;18.17;;;;;;;;;;5015562;28;20408;-53
2021/12/17 17:32:53;;;;;;;25.70;14.80;;;;;;;;;;5029181;28;20922;-53
2021/12/17 17:35:19;;;;;;;30.13;15.07;;;;;;;;;;5033619;28;20450;-51